sensor_id;sensor_type;location;lat;lon;timestamp;P1;durP1;ratioP1;P2;durP2;ratioP2
37645;SDS011;23489;49.600;6.138;2023-04-15T02:44:26;5.90;;;1.90;;
37645;SDS011;23489;49.600;6.138;2023-04-15T02:46:56;3.03;;;1.80;;
37645;SDS011;23489;49.600;6.138;2023-04-15T02:49:23;3.95;;;2.00;;
37645;SDS011;23489;49.600;6.138;2023-04-15T02:51:49;3.70;;;1.85;;
37645;SDS011;23489;49.600;6.138;2023-04-15T02:54:17;4.00;;;1.75;;
37645;SDS011;23489;49.600;6.138;2023-04-15T02:56:43;4.60;;;1.80;;
37645;SDS011;23489;49.600;6.138;2023-04-15T02:59:08;3.85;;;1.80;;
37645;SDS011;23489;49.600;6.138;2023-04-15T03:01:34;4.03;;;1.73;;
37645;SDS011;23489;49.600;6.138;2023-04-15T03:04:00;3.38;;;2.00;;
37645;SDS011;23489;49.600;6.138;2023-04-15T03:06:26;5.10;;;1.80;;
37645;SDS011;23489;49.600;6.138;2023-04-15T03:08:51;4.53;;;1.92;;
37645;SDS011;23489;49.600;6.138;2023-04-15T03:11:18;3.22;;;1.60;;
37645;SDS011;23489;49.600;6.138;2023-04-15T04:34:12;5.30;;;1.90;;
37645;SDS011;23489;49.600;6.138;2023-04-15T04:36:38;3.47;;;1.77;;
37645;SDS011;23489;49.600;6.138;2023-04-15T04:39:04;3.90;;;1.70;;
37645;SDS011;23489;49.600;6.138;2023-04-15T04:41:30;2.58;;;1.58;;
37645;SDS011;23489;49.600;6.138;2023-04-15T04:51:13;2.85;;;1.55;;
37645;SDS011;23489;49.600;6.138;2023-04-15T04:53:39;2.85;;;1.50;;
37645;SDS011;23489;49.600;6.138;2023-04-15T05:00:56;4.60;;;1.90;;
37645;SDS011;23489;49.600;6.138;2023-04-15T05:03:22;4.60;;;1.77;;
37645;SDS011;23489;49.600;6.138;2023-04-15T05:17:57;3.42;;;1.50;;
37645;SDS011;23489;49.600;6.138;2023-04-15T05:37:22;3.67;;;1.70;;
37645;SDS011;23489;49.600;6.138;2023-04-15T05:39:47;4.50;;;1.60;;
37645;SDS011;23489;49.600;6.138;2023-04-15T05:42:13;4.78;;;1.90;;
37645;SDS011;23489;49.600;6.138;2023-04-15T05:44:39;5.55;;;1.80;;
37645;SDS011;23489;49.600;6.138;2023-04-15T05:47:05;2.35;;;1.42;;
37645;SDS011;23489;49.600;6.138;2023-04-15T05:49:31;4.72;;;1.60;;
37645;SDS011;23489;49.600;6.138;2023-04-15T06:50:14;5.07;;;2.42;;
37645;SDS011;23489;49.600;6.138;2023-04-15T06:52:39;6.40;;;2.00;;
37645;SDS011;23489;49.600;6.138;2023-04-15T06:55:05;3.60;;;2.05;;
37645;SDS011;23489;49.600;6.138;2023-04-15T06:57:32;3.28;;;1.80;;
37645;SDS011;23489;49.600;6.138;2023-04-15T06:59:57;3.53;;;1.83;;
37645;SDS011;23489;49.600;6.138;2023-04-15T07:02:23;5.28;;;1.92;;
37645;SDS011;23489;49.600;6.138;2023-04-15T07:04:48;4.10;;;1.83;;
37645;SDS011;23489;49.600;6.138;2023-04-15T07:07:14;4.67;;;1.80;;
37645;SDS011;23489;49.600;6.138;2023-04-15T07:09:41;4.40;;;1.85;;
37645;SDS011;23489;49.600;6.138;2023-04-15T07:12:07;2.80;;;1.50;;
37645;SDS011;23489;49.600;6.138;2023-04-15T07:14:32;3.30;;;1.60;;
37645;SDS011;23489;49.600;6.138;2023-04-15T07:16:58;3.70;;;1.63;;
37645;SDS011;23489;49.600;6.138;2023-04-15T07:34:01;4.38;;;2.00;;
37645;SDS011;23489;49.600;6.138;2023-04-15T07:36:27;2.63;;;1.30;;
37645;SDS011;23489;49.600;6.138;2023-04-15T07:46:12;6.53;;;1.60;;
37645;SDS011;23489;49.600;6.138;2023-04-15T07:48:38;3.45;;;1.60;;
37645;SDS011;23489;49.600;6.138;2023-04-15T07:53:29;4.18;;;1.90;;
37645;SDS011;23489;49.600;6.138;2023-04-15T07:58:21;4.13;;;1.50;;
37645;SDS011;23489;49.600;6.138;2023-04-15T08:05:38;2.55;;;1.92;;
37645;SDS011;23489;49.600;6.138;2023-04-15T08:10:29;2.28;;;1.58;;
37645;SDS011;23489;49.600;6.138;2023-04-15T08:12:55;3.10;;;1.83;;
37645;SDS011;23489;49.600;6.138;2023-04-15T08:15:21;3.35;;;2.00;;
37645;SDS011;23489;49.600;6.138;2023-04-15T08:17:47;5.20;;;1.63;;
37645;SDS011;23489;49.600;6.138;2023-04-15T08:20:13;3.60;;;1.85;;
37645;SDS011;23489;49.600;6.138;2023-04-15T08:22:38;5.35;;;1.70;;
37645;SDS011;23489;49.600;6.138;2023-04-15T08:25:05;3.33;;;1.73;;
37645;SDS011;23489;49.600;6.138;2023-04-15T08:27:30;4.95;;;2.70;;
37645;SDS011;23489;49.600;6.138;2023-04-15T08:34:48;3.63;;;1.55;;
37645;SDS011;23489;49.600;6.138;2023-04-15T08:39:39;4.18;;;1.98;;
37645;SDS011;23489;49.600;6.138;2023-04-15T08:42:06;5.32;;;1.75;;
37645;SDS011;23489;49.600;6.138;2023-04-15T08:49:34;3.65;;;1.67;;
37645;SDS011;23489;49.600;6.138;2023-04-15T08:52:04;3.38;;;1.92;;
37645;SDS011;23489;49.600;6.138;2023-04-15T08:54:31;6.30;;;1.60;;
37645;SDS011;23489;49.600;6.138;2023-04-15T09:01:49;5.18;;;1.80;;
37645;SDS011;23489;49.600;6.138;2023-04-15T09:04:16;4.10;;;2.17;;
37645;SDS011;23489;49.600;6.138;2023-04-15T09:06:41;4.43;;;1.88;;
37645;SDS011;23489;49.600;6.138;2023-04-15T09:09:07;4.60;;;1.70;;
37645;SDS011;23489;49.600;6.138;2023-04-15T09:11:33;4.40;;;1.70;;
37645;SDS011;23489;49.600;6.138;2023-04-15T09:13:58;5.07;;;1.80;;
37645;SDS011;23489;49.600;6.138;2023-04-15T09:16:24;4.30;;;1.80;;
37645;SDS011;23489;49.600;6.138;2023-04-15T09:18:50;3.10;;;1.80;;
37645;SDS011;23489;49.600;6.138;2023-04-15T09:21:17;4.22;;;1.95;;
37645;SDS011;23489;49.600;6.138;2023-04-15T09:23:53;5.10;;;1.73;;
37645;SDS011;23489;49.600;6.138;2023-04-15T09:39:22;4.20;;;1.40;;
37645;SDS011;23489;49.600;6.138;2023-04-15T09:44:30;2.33;;;1.40;;
37645;SDS011;23489;49.600;6.138;2023-04-15T09:46:56;2.92;;;1.35;;
37645;SDS011;23489;49.600;6.138;2023-04-15T09:49:22;2.22;;;1.20;;
37645;SDS011;23489;49.600;6.138;2023-04-15T09:51:47;1.95;;;1.30;;
37645;SDS011;23489;49.600;6.138;2023-04-15T09:54:17;4.82;;;1.50;;
37645;SDS011;23489;49.600;6.138;2023-04-15T09:56:45;6.35;;;1.77;;
37645;SDS011;23489;49.600;6.138;2023-04-15T09:59:10;2.67;;;1.45;;
37645;SDS011;23489;49.600;6.138;2023-04-15T10:01:36;3.10;;;1.30;;
37645;SDS011;23489;49.600;6.138;2023-04-15T10:04:04;3.17;;;1.50;;
37645;SDS011;23489;49.600;6.138;2023-04-15T10:08:56;3.28;;;1.50;;
37645;SDS011;23489;49.600;6.138;2023-04-15T10:11:23;3.65;;;1.33;;
37645;SDS011;23489;49.600;6.138;2023-04-15T10:13:52;3.47;;;1.50;;
37645;SDS011;23489;49.600;6.138;2023-04-15T10:16:19;2.78;;;1.52;;
37645;SDS011;23489;49.600;6.138;2023-04-15T10:18:50;1.92;;;1.42;;
37645;SDS011;23489;49.600;6.138;2023-04-15T10:21:19;5.68;;;1.60;;
37645;SDS011;23489;49.600;6.138;2023-04-15T10:23:47;2.55;;;1.38;;
37645;SDS011;23489;49.600;6.138;2023-04-15T10:28:41;5.20;;;1.50;;
37645;SDS011;23489;49.600;6.138;2023-04-15T10:31:08;3.30;;;1.45;;
37645;SDS011;23489;49.600;6.138;2023-04-15T10:33:37;3.38;;;1.30;;
37645;SDS011;23489;49.600;6.138;2023-04-15T10:36:04;2.58;;;1.20;;
37645;SDS011;23489;49.600;6.138;2023-04-15T10:43:39;4.20;;;1.40;;
37645;SDS011;23489;49.600;6.138;2023-04-15T10:46:09;3.40;;;1.52;;
37645;SDS011;23489;49.600;6.138;2023-04-15T10:48:35;3.92;;;1.48;;
37645;SDS011;23489;49.600;6.138;2023-04-15T10:51:01;3.33;;;1.40;;
37645;SDS011;23489;49.600;6.138;2023-04-15T10:53:27;3.03;;;1.00;;
37645;SDS011;23489;49.600;6.138;2023-04-15T10:55:55;3.20;;;1.27;;
37645;SDS011;23489;49.600;6.138;2023-04-15T11:00:49;3.20;;;1.20;;
37645;SDS011;23489;49.600;6.138;2023-04-15T11:03:30;2.78;;;1.25;;
37645;SDS011;23489;49.600;6.138;2023-04-15T11:11:20;3.15;;;1.45;;
37645;SDS011;23489;49.600;6.138;2023-04-15T11:13:47;2.33;;;1.20;;
37645;SDS011;23489;49.600;6.138;2023-04-15T11:16:14;4.57;;;1.65;;
37645;SDS011;23489;49.600;6.138;2023-04-15T11:18:40;3.55;;;1.17;;
37645;SDS011;23489;49.600;6.138;2023-04-15T11:21:06;2.60;;;1.27;;
37645;SDS011;23489;49.600;6.138;2023-04-15T11:23:34;3.70;;;1.35;;
37645;SDS011;23489;49.600;6.138;2023-04-15T11:26:01;4.82;;;1.50;;
37645;SDS011;23489;49.600;6.138;2023-04-15T11:28:30;3.83;;;1.20;;
37645;SDS011;23489;49.600;6.138;2023-04-15T11:30:56;2.75;;;1.52;;
37645;SDS011;23489;49.600;6.138;2023-04-15T11:33:22;4.32;;;1.20;;
37645;SDS011;23489;49.600;6.138;2023-04-15T11:35:49;4.38;;;1.63;;
37645;SDS011;23489;49.600;6.138;2023-04-15T11:38:17;3.80;;;1.38;;
37645;SDS011;23489;49.600;6.138;2023-04-15T11:40:43;4.10;;;1.50;;
37645;SDS011;23489;49.600;6.138;2023-04-15T11:43:10;1.65;;;1.20;;
37645;SDS011;23489;49.600;6.138;2023-04-15T11:48:33;3.00;;;1.55;;
37645;SDS011;23489;49.600;6.138;2023-04-15T11:51:00;2.17;;;1.48;;
37645;SDS011;23489;49.600;6.138;2023-04-15T11:53:44;1.60;;;1.10;;
37645;SDS011;23489;49.600;6.138;2023-04-15T11:56:21;4.57;;;1.63;;
37645;SDS011;23489;49.600;6.138;2023-04-15T11:58:55;2.25;;;1.50;;
37645;SDS011;23489;49.600;6.138;2023-04-15T12:04:09;7.05;;;1.70;;
37645;SDS011;23489;49.600;6.138;2023-04-15T12:06:39;5.38;;;1.60;;
37645;SDS011;23489;49.600;6.138;2023-04-15T12:16:54;4.75;;;1.90;;
37645;SDS011;23489;49.600;6.138;2023-04-15T12:19:30;3.85;;;1.95;;
37645;SDS011;23489;49.600;6.138;2023-04-15T12:22:04;5.80;;;1.92;;
37645;SDS011;23489;49.600;6.138;2023-04-15T12:24:34;3.55;;;1.73;;
37645;SDS011;23489;49.600;6.138;2023-04-15T12:27:01;3.60;;;2.10;;
37645;SDS011;23489;49.600;6.138;2023-04-15T12:29:32;4.97;;;2.10;;
37645;SDS011;23489;49.600;6.138;2023-04-15T12:32:03;3.33;;;1.70;;
37645;SDS011;23489;49.600;6.138;2023-04-15T12:34:33;4.45;;;1.77;;
37645;SDS011;23489;49.600;6.138;2023-04-15T12:37:01;3.67;;;2.10;;
37645;SDS011;23489;49.600;6.138;2023-04-15T12:39:30;2.95;;;1.58;;
37645;SDS011;23489;49.600;6.138;2023-04-15T12:41:58;2.25;;;1.77;;
37645;SDS011;23489;49.600;6.138;2023-04-15T12:44:25;3.08;;;1.83;;
37645;SDS011;23489;49.600;6.138;2023-04-15T12:46:52;2.80;;;1.75;;
37645;SDS011;23489;49.600;6.138;2023-04-15T12:49:19;1.73;;;1.40;;
37645;SDS011;23489;49.600;6.138;2023-04-15T12:51:49;3.88;;;1.80;;
37645;SDS011;23489;49.600;6.138;2023-04-15T12:54:19;2.88;;;1.55;;
37645;SDS011;23489;49.600;6.138;2023-04-15T12:56:45;5.22;;;2.03;;
37645;SDS011;23489;49.600;6.138;2023-04-15T12:59:13;2.45;;;1.65;;
37645;SDS011;23489;49.600;6.138;2023-04-15T13:01:39;2.80;;;1.63;;
37645;SDS011;23489;49.600;6.138;2023-04-15T13:04:05;1.90;;;1.55;;
37645;SDS011;23489;49.600;6.138;2023-04-15T13:06:31;3.33;;;1.70;;
37645;SDS011;23489;49.600;6.138;2023-04-15T13:08:59;2.45;;;2.00;;
37645;SDS011;23489;49.600;6.138;2023-04-15T13:11:26;2.92;;;1.80;;
37645;SDS011;23489;49.600;6.138;2023-04-15T13:13:55;3.95;;;1.48;;
37645;SDS011;23489;49.600;6.138;2023-04-15T13:16:30;6.20;;;1.88;;
37645;SDS011;23489;49.600;6.138;2023-04-15T13:18:57;1.67;;;1.48;;
37645;SDS011;23489;49.600;6.138;2023-04-15T13:21:24;13.00;;;2.00;;
37645;SDS011;23489;49.600;6.138;2023-04-15T13:23:51;2.97;;;1.80;;
37645;SDS011;23489;49.600;6.138;2023-04-15T13:26:17;2.33;;;1.73;;
37645;SDS011;23489;49.600;6.138;2023-04-15T13:28:43;3.13;;;1.77;;
37645;SDS011;23489;49.600;6.138;2023-04-15T13:31:08;2.45;;;1.60;;
37645;SDS011;23489;49.600;6.138;2023-04-15T13:33:34;2.03;;;1.60;;
37645;SDS011;23489;49.600;6.138;2023-04-15T13:35:59;2.65;;;1.65;;
37645;SDS011;23489;49.600;6.138;2023-04-15T13:38:25;2.58;;;1.70;;
37645;SDS011;23489;49.600;6.138;2023-04-15T13:40:51;1.73;;;1.63;;
37645;SDS011;23489;49.600;6.138;2023-04-15T13:43:16;4.13;;;1.90;;
37645;SDS011;23489;49.600;6.138;2023-04-15T13:45:42;3.95;;;2.20;;
37645;SDS011;23489;49.600;6.138;2023-04-15T13:48:08;2.15;;;1.80;;
37645;SDS011;23489;49.600;6.138;2023-04-15T13:50:34;6.03;;;2.25;;
37645;SDS011;23489;49.600;6.138;2023-04-15T13:53:00;5.70;;;2.10;;
37645;SDS011;23489;49.600;6.138;2023-04-15T13:55:26;2.45;;;1.85;;
37645;SDS011;23489;49.600;6.138;2023-04-15T13:57:51;3.67;;;2.10;;
37645;SDS011;23489;49.600;6.138;2023-04-15T14:00:17;4.88;;;2.33;;
37645;SDS011;23489;49.600;6.138;2023-04-15T14:02:43;3.13;;;2.10;;
37645;SDS011;23489;49.600;6.138;2023-04-15T14:05:09;3.63;;;1.92;;
37645;SDS011;23489;49.600;6.138;2023-04-15T14:07:35;2.40;;;1.88;;
37645;SDS011;23489;49.600;6.138;2023-04-15T14:10:01;2.72;;;1.90;;
37645;SDS011;23489;49.600;6.138;2023-04-15T14:12:27;2.10;;;1.90;;
37645;SDS011;23489;49.600;6.138;2023-04-15T14:14:53;2.05;;;1.83;;
37645;SDS011;23489;49.600;6.138;2023-04-15T14:17:19;4.40;;;2.20;;
37645;SDS011;23489;49.600;6.138;2023-04-15T14:19:44;1.63;;;1.52;;
37645;SDS011;23489;49.600;6.138;2023-04-15T14:22:10;3.60;;;1.38;;
37645;SDS011;23489;49.600;6.138;2023-04-15T14:24:36;1.60;;;1.50;;
37645;SDS011;23489;49.600;6.138;2023-04-15T14:27:01;1.98;;;1.20;;
37645;SDS011;23489;49.600;6.138;2023-04-15T14:29:27;2.00;;;1.10;;
37645;SDS011;23489;49.600;6.138;2023-04-15T14:31:53;1.33;;;1.13;;
37645;SDS011;23489;49.600;6.138;2023-04-15T14:34:21;4.25;;;1.60;;
37645;SDS011;23489;49.600;6.138;2023-04-15T14:36:49;1.60;;;1.23;;
37645;SDS011;23489;49.600;6.138;2023-04-15T14:39:15;7.32;;;1.70;;
37645;SDS011;23489;49.600;6.138;2023-04-15T14:41:40;1.65;;;1.45;;
37645;SDS011;23489;49.600;6.138;2023-04-15T14:44:06;2.75;;;1.70;;
37645;SDS011;23489;49.600;6.138;2023-04-15T14:46:33;2.55;;;1.63;;
37645;SDS011;23489;49.600;6.138;2023-04-15T14:48:59;3.63;;;1.65;;
37645;SDS011;23489;49.600;6.138;2023-04-15T14:51:25;1.95;;;1.42;;
37645;SDS011;23489;49.600;6.138;2023-04-15T14:53:50;2.83;;;1.38;;
37645;SDS011;23489;49.600;6.138;2023-04-15T14:56:16;1.38;;;1.10;;
37645;SDS011;23489;49.600;6.138;2023-04-15T15:27:51;1.20;;;0.82;;
37645;SDS011;23489;49.600;6.138;2023-04-15T16:01:53;2.85;;;1.00;;
37645;SDS011;23489;49.600;6.138;2023-04-15T16:33:27;1.30;;;1.20;;
37645;SDS011;23489;49.600;6.138;2023-04-15T17:22:00;2.13;;;1.85;;
37645;SDS011;23489;49.600;6.138;2023-04-15T17:24:26;2.10;;;1.70;;
37645;SDS011;23489;49.600;6.138;2023-04-15T17:26:52;2.45;;;1.77;;
37645;SDS011;23489;49.600;6.138;2023-04-15T17:29:18;1.98;;;1.77;;
37645;SDS011;23489;49.600;6.138;2023-04-15T17:31:44;1.95;;;1.60;;
37645;SDS011;23489;49.600;6.138;2023-04-15T17:34:10;1.90;;;1.70;;
37645;SDS011;23489;49.600;6.138;2023-04-15T17:36:36;5.05;;;1.77;;
37645;SDS011;23489;49.600;6.138;2023-04-15T17:39:02;2.25;;;1.60;;
37645;SDS011;23489;49.600;6.138;2023-04-15T17:41:27;2.08;;;1.70;;
37645;SDS011;23489;49.600;6.138;2023-04-15T17:43:53;4.00;;;1.90;;
37645;SDS011;23489;49.600;6.138;2023-04-15T17:46:18;3.92;;;1.85;;
37645;SDS011;23489;49.600;6.138;2023-04-15T17:48:44;1.90;;;1.70;;
37645;SDS011;23489;49.600;6.138;2023-04-15T17:51:11;2.80;;;1.88;;
37645;SDS011;23489;49.600;6.138;2023-04-15T17:56:03;2.10;;;1.80;;
37645;SDS011;23489;49.600;6.138;2023-04-15T17:58:28;2.42;;;2.00;;
37645;SDS011;23489;49.600;6.138;2023-04-15T18:00:54;2.63;;;1.70;;
37645;SDS011;23489;49.600;6.138;2023-04-15T18:20:20;4.18;;;2.03;;
37645;SDS011;23489;49.600;6.138;2023-04-15T18:22:46;3.90;;;2.47;;
37645;SDS011;23489;49.600;6.138;2023-04-15T18:32:32;2.85;;;2.35;;
37645;SDS011;23489;49.600;6.138;2023-04-15T18:34:58;4.43;;;2.60;;
37645;SDS011;23489;49.600;6.138;2023-04-15T18:37:25;4.60;;;2.33;;
37645;SDS011;23489;49.600;6.138;2023-04-15T18:39:51;2.95;;;2.47;;
37645;SDS011;23489;49.600;6.138;2023-04-15T18:42:18;2.92;;;2.22;;
37645;SDS011;23489;49.600;6.138;2023-04-15T18:44:44;2.85;;;2.22;;
37645;SDS011;23489;49.600;6.138;2023-04-15T18:47:09;4.53;;;2.60;;
37645;SDS011;23489;49.600;6.138;2023-04-15T18:52:01;2.72;;;2.30;;
37645;SDS011;23489;49.600;6.138;2023-04-15T18:54:26;2.65;;;2.22;;
37645;SDS011;23489;49.600;6.138;2023-04-15T18:56:52;2.55;;;2.25;;
37645;SDS011;23489;49.600;6.138;2023-04-15T18:59:18;2.72;;;2.25;;
37645;SDS011;23489;49.600;6.138;2023-04-15T19:01:43;4.65;;;2.70;;
37645;SDS011;23489;49.600;6.138;2023-04-15T19:04:09;3.80;;;2.50;;
37645;SDS011;23489;49.600;6.138;2023-04-15T19:18:44;3.03;;;2.35;;
37645;SDS011;23489;49.600;6.138;2023-04-15T19:21:10;2.45;;;2.25;;
37645;SDS011;23489;49.600;6.138;2023-04-15T19:23:37;2.03;;;1.83;;
37645;SDS011;23489;49.600;6.138;2023-04-15T19:26:03;4.28;;;2.08;;
37645;SDS011;23489;49.600;6.138;2023-04-15T19:40:39;2.40;;;2.13;;
37645;SDS011;23489;49.600;6.138;2023-04-15T19:43:05;3.92;;;2.15;;
37645;SDS011;23489;49.600;6.138;2023-04-15T19:45:31;3.13;;;2.10;;
37645;SDS011;23489;49.600;6.138;2023-04-15T19:50:23;5.10;;;2.40;;
37645;SDS011;23489;49.600;6.138;2023-04-15T19:52:50;3.10;;;2.42;;
37645;SDS011;23489;49.600;6.138;2023-04-15T19:55:16;3.40;;;2.45;;
37645;SDS011;23489;49.600;6.138;2023-04-15T19:57:42;3.83;;;2.20;;
37645;SDS011;23489;49.600;6.138;2023-04-15T20:00:08;3.78;;;2.10;;
37645;SDS011;23489;49.600;6.138;2023-04-15T20:02:34;3.28;;;2.03;;
37645;SDS011;23489;49.600;6.138;2023-04-15T20:05:00;2.90;;;2.00;;
37645;SDS011;23489;49.600;6.138;2023-04-15T20:07:25;3.20;;;2.30;;
37645;SDS011;23489;49.600;6.138;2023-04-15T20:09:51;4.30;;;2.50;;
37645;SDS011;23489;49.600;6.138;2023-04-15T20:24:24;2.00;;;1.80;;
37645;SDS011;23489;49.600;6.138;2023-04-15T20:26:50;2.77;;;2.03;;
37645;SDS011;23489;49.600;6.138;2023-04-15T20:29:16;4.32;;;2.20;;
37645;SDS011;23489;49.600;6.138;2023-04-15T20:31:42;5.90;;;3.60;;
37645;SDS011;23489;49.600;6.138;2023-04-15T20:34:07;4.60;;;2.63;;
37645;SDS011;23489;49.600;6.138;2023-04-15T20:36:33;4.07;;;2.50;;
37645;SDS011;23489;49.600;6.138;2023-04-15T20:38:59;3.85;;;2.15;;
37645;SDS011;23489;49.600;6.138;2023-04-15T20:41:24;1.83;;;1.73;;
37645;SDS011;23489;49.600;6.138;2023-04-15T20:43:50;2.22;;;1.85;;
37645;SDS011;23489;49.600;6.138;2023-04-15T20:46:15;3.08;;;2.10;;
37645;SDS011;23489;49.600;6.138;2023-04-15T20:48:41;3.40;;;2.10;;
37645;SDS011;23489;49.600;6.138;2023-04-15T20:51:07;5.97;;;2.00;;
37645;SDS011;23489;49.600;6.138;2023-04-15T20:53:32;3.30;;;2.10;;
37645;SDS011;23489;49.600;6.138;2023-04-15T20:55:58;3.33;;;1.92;;
37645;SDS011;23489;49.600;6.138;2023-04-15T21:00:51;2.90;;;2.10;;
37645;SDS011;23489;49.600;6.138;2023-04-15T21:03:17;4.50;;;2.40;;
37645;SDS011;23489;49.600;6.138;2023-04-15T21:05:42;4.38;;;1.98;;
37645;SDS011;23489;49.600;6.138;2023-04-15T21:08:08;5.10;;;2.28;;
37645;SDS011;23489;49.600;6.138;2023-04-15T21:10:33;2.35;;;2.05;;
37645;SDS011;23489;49.600;6.138;2023-04-15T21:13:00;3.53;;;2.00;;
37645;SDS011;23489;49.600;6.138;2023-04-15T21:15:26;3.38;;;1.90;;
37645;SDS011;23489;49.600;6.138;2023-04-15T21:17:52;5.03;;;2.30;;
37645;SDS011;23489;49.600;6.138;2023-04-15T21:20:18;2.65;;;2.30;;
37645;SDS011;23489;49.600;6.138;2023-04-15T21:22:43;2.38;;;2.17;;
37645;SDS011;23489;49.600;6.138;2023-04-15T21:25:09;3.00;;;2.30;;
37645;SDS011;23489;49.600;6.138;2023-04-15T21:27:35;4.35;;;2.55;;
37645;SDS011;23489;49.600;6.138;2023-04-15T21:30:01;2.97;;;2.23;;
37645;SDS011;23489;49.600;6.138;2023-04-15T21:32:27;2.67;;;2.20;;
37645;SDS011;23489;49.600;6.138;2023-04-15T21:34:54;3.13;;;2.30;;
37645;SDS011;23489;49.600;6.138;2023-04-15T21:39:45;2.92;;;1.83;;
37645;SDS011;23489;49.600;6.138;2023-04-15T21:42:11;2.80;;;2.20;;
37645;SDS011;23489;49.600;6.138;2023-04-15T21:44:37;3.13;;;2.10;;
37645;SDS011;23489;49.600;6.138;2023-04-15T21:47:02;2.83;;;2.35;;
37645;SDS011;23489;49.600;6.138;2023-04-15T21:51:53;4.82;;;2.45;;
37645;SDS011;23489;49.600;6.138;2023-04-15T21:59:11;2.60;;;2.00;;
37645;SDS011;23489;49.600;6.138;2023-04-15T22:01:37;2.30;;;1.95;;
37645;SDS011;23489;49.600;6.138;2023-04-15T22:04:02;3.47;;;2.10;;
37645;SDS011;23489;49.600;6.138;2023-04-15T22:06:29;3.05;;;2.20;;
37645;SDS011;23489;49.600;6.138;2023-04-15T22:23:32;2.83;;;2.45;;
37645;SDS011;23489;49.600;6.138;2023-04-15T22:25:58;2.75;;;2.28;;
37645;SDS011;23489;49.600;6.138;2023-04-15T22:28:24;4.05;;;2.38;;
37645;SDS011;23489;49.600;6.138;2023-04-15T22:30:49;2.60;;;2.40;;
37645;SDS011;23489;49.600;6.138;2023-04-15T22:33:18;3.50;;;2.78;;
37645;SDS011;23489;49.600;6.138;2023-04-15T22:35:43;4.32;;;2.80;;
37645;SDS011;23489;49.600;6.138;2023-04-15T22:38:09;3.08;;;2.38;;
37645;SDS011;23489;49.600;6.138;2023-04-15T22:52:42;2.45;;;2.13;;
37645;SDS011;23489;49.600;6.138;2023-04-15T22:55:10;3.45;;;2.63;;
37645;SDS011;23489;49.600;6.138;2023-04-15T22:57:36;5.18;;;2.58;;
37645;SDS011;23489;49.600;6.138;2023-04-15T23:00:02;2.90;;;2.20;;
37645;SDS011;23489;49.600;6.138;2023-04-15T23:02:27;3.95;;;2.50;;
37645;SDS011;23489;49.600;6.138;2023-04-15T23:04:53;3.65;;;2.70;;
37645;SDS011;23489;49.600;6.138;2023-04-15T23:07:19;3.88;;;2.65;;
37645;SDS011;23489;49.600;6.138;2023-04-15T23:09:44;3.13;;;2.35;;
37645;SDS011;23489;49.600;6.138;2023-04-15T23:12:12;3.47;;;2.40;;
37645;SDS011;23489;49.600;6.138;2023-04-15T23:14:38;3.35;;;2.40;;
37645;SDS011;23489;49.600;6.138;2023-04-15T23:17:03;4.40;;;2.17;;
37645;SDS011;23489;49.600;6.138;2023-04-15T23:34:02;3.00;;;2.67;;
37645;SDS011;23489;49.600;6.138;2023-04-15T23:36:28;5.47;;;2.92;;
37645;SDS011;23489;49.600;6.138;2023-04-15T23:38:54;5.03;;;2.95;;
37645;SDS011;23489;49.600;6.138;2023-04-15T23:41:20;3.30;;;2.70;;
37645;SDS011;23489;49.600;6.138;2023-04-15T23:43:45;3.58;;;2.47;;
37645;SDS011;23489;49.600;6.138;2023-04-15T23:46:11;7.88;;;2.88;;
37645;SDS011;23489;49.600;6.138;2023-04-15T23:48:37;3.63;;;2.38;;
37645;SDS011;23489;49.600;6.138;2023-04-15T23:51:03;3.92;;;2.60;;
37645;SDS011;23489;49.600;6.138;2023-04-15T23:53:29;4.88;;;2.58;;
37645;SDS011;23489;49.600;6.138;2023-04-15T23:55:55;7.68;;;2.90;;
37645;SDS011;23489;49.600;6.138;2023-04-15T23:58:21;3.33;;;2.35;;
